sensor_id;sensor_type;location;lat;lon;timestamp;P1;durP1;ratioP1;P2;durP2;ratioP2
42096;SDS011;27754;45.414;11.084;2023-07-13T00:01:47;16.38;;;2.40;;
42096;SDS011;27754;45.414;11.084;2023-07-13T00:04:19;34.53;;;3.75;;
42096;SDS011;27754;45.414;11.084;2023-07-13T00:06:49;17.45;;;2.85;;
42096;SDS011;27754;45.414;11.084;2023-07-13T00:09:17;6.70;;;2.05;;
42096;SDS011;27754;45.414;11.084;2023-07-13T00:11:45;9.98;;;1.98;;
42096;SDS011;27754;45.414;11.084;2023-07-13T00:14:15;9.63;;;1.98;;
42096;SDS011;27754;45.414;11.084;2023-07-13T00:16:42;5.25;;;1.70;;
42096;SDS011;27754;45.414;11.084;2023-07-13T00:19:12;10.43;;;2.25;;
42096;SDS011;27754;45.414;11.084;2023-07-13T00:21:40;4.93;;;1.42;;
42096;SDS011;27754;45.414;11.084;2023-07-13T00:24:08;3.45;;;1.08;;
42096;SDS011;27754;45.414;11.084;2023-07-13T00:26:39;4.30;;;0.98;;
42096;SDS011;27754;45.414;11.084;2023-07-13T00:29:07;2.70;;;1.23;;
42096;SDS011;27754;45.414;11.084;2023-07-13T00:31:35;1.73;;;0.68;;
42096;SDS011;27754;45.414;11.084;2023-07-13T00:34:03;3.70;;;0.90;;
42096;SDS011;27754;45.414;11.084;2023-07-13T00:36:31;2.53;;;0.73;;
42096;SDS011;27754;45.414;11.084;2023-07-13T00:38:58;2.55;;;0.95;;
42096;SDS011;27754;45.414;11.084;2023-07-13T00:41:25;2.33;;;0.85;;
42096;SDS011;27754;45.414;11.084;2023-07-13T00:43:52;3.20;;;0.90;;
42096;SDS011;27754;45.414;11.084;2023-07-13T00:46:24;4.88;;;1.02;;
42096;SDS011;27754;45.414;11.084;2023-07-13T00:49:00;4.63;;;1.30;;
42096;SDS011;27754;45.414;11.084;2023-07-13T00:54:09;4.72;;;1.10;;
42096;SDS011;27754;45.414;11.084;2023-07-13T00:56:39;2.20;;;0.95;;
42096;SDS011;27754;45.414;11.084;2023-07-13T00:59:10;2.45;;;0.93;;
42096;SDS011;27754;45.414;11.084;2023-07-13T01:01:38;3.00;;;1.30;;
42096;SDS011;27754;45.414;11.084;2023-07-13T01:04:06;4.88;;;1.40;;
42096;SDS011;27754;45.414;11.084;2023-07-13T01:06:37;3.75;;;1.25;;
42096;SDS011;27754;45.414;11.084;2023-07-13T01:09:07;3.72;;;1.15;;
42096;SDS011;27754;45.414;11.084;2023-07-13T01:11:34;3.60;;;1.10;;
42096;SDS011;27754;45.414;11.084;2023-07-13T01:14:02;4.93;;;1.38;;
42096;SDS011;27754;45.414;11.084;2023-07-13T01:16:34;2.40;;;1.40;;
42096;SDS011;27754;45.414;11.084;2023-07-13T01:19:03;3.50;;;1.80;;
42096;SDS011;27754;45.414;11.084;2023-07-13T01:21:39;4.47;;;1.40;;
42096;SDS011;27754;45.414;11.084;2023-07-13T01:24:09;3.22;;;1.80;;
42096;SDS011;27754;45.414;11.084;2023-07-13T01:26:36;2.92;;;1.10;;
42096;SDS011;27754;45.414;11.084;2023-07-13T01:29:06;6.95;;;1.45;;
42096;SDS011;27754;45.414;11.084;2023-07-13T01:31:36;5.75;;;1.42;;
42096;SDS011;27754;45.414;11.084;2023-07-13T01:34:03;6.50;;;1.70;;
42096;SDS011;27754;45.414;11.084;2023-07-13T01:36:31;5.45;;;1.40;;
42096;SDS011;27754;45.414;11.084;2023-07-13T01:38:58;10.88;;;2.65;;
42096;SDS011;27754;45.414;11.084;2023-07-13T01:41:25;5.68;;;1.70;;
42096;SDS011;27754;45.414;11.084;2023-07-13T01:43:52;2.67;;;1.38;;
42096;SDS011;27754;45.414;11.084;2023-07-13T01:46:19;3.58;;;1.60;;
42096;SDS011;27754;45.414;11.084;2023-07-13T01:48:49;4.80;;;1.67;;
42096;SDS011;27754;45.414;11.084;2023-07-13T01:51:17;5.00;;;1.73;;
42096;SDS011;27754;45.414;11.084;2023-07-13T01:53:45;6.28;;;2.05;;
42096;SDS011;27754;45.414;11.084;2023-07-13T01:56:12;6.18;;;2.08;;
42096;SDS011;27754;45.414;11.084;2023-07-13T01:58:40;8.77;;;2.03;;
42096;SDS011;27754;45.414;11.084;2023-07-13T02:01:06;5.20;;;1.88;;
42096;SDS011;27754;45.414;11.084;2023-07-13T02:03:33;7.50;;;2.00;;
42096;SDS011;27754;45.414;11.084;2023-07-13T02:06:00;7.25;;;2.38;;
42096;SDS011;27754;45.414;11.084;2023-07-13T02:08:27;4.93;;;1.70;;
42096;SDS011;27754;45.414;11.084;2023-07-13T02:10:54;4.45;;;1.90;;
42096;SDS011;27754;45.414;11.084;2023-07-13T02:13:21;4.63;;;1.70;;
42096;SDS011;27754;45.414;11.084;2023-07-13T02:15:51;9.25;;;2.00;;
42096;SDS011;27754;45.414;11.084;2023-07-13T02:18:19;3.70;;;1.77;;
42096;SDS011;27754;45.414;11.084;2023-07-13T02:20:46;4.47;;;1.83;;
42096;SDS011;27754;45.414;11.084;2023-07-13T02:23:13;5.57;;;2.08;;
42096;SDS011;27754;45.414;11.084;2023-07-13T02:25:40;6.93;;;2.10;;
42096;SDS011;27754;45.414;11.084;2023-07-13T02:28:07;7.28;;;2.00;;
42096;SDS011;27754;45.414;11.084;2023-07-13T02:30:35;8.07;;;2.45;;
42096;SDS011;27754;45.414;11.084;2023-07-13T02:33:02;9.50;;;2.05;;
42096;SDS011;27754;45.414;11.084;2023-07-13T02:35:29;5.47;;;2.40;;
42096;SDS011;27754;45.414;11.084;2023-07-13T02:37:57;6.65;;;2.15;;
42096;SDS011;27754;45.414;11.084;2023-07-13T02:40:24;4.28;;;2.20;;
42096;SDS011;27754;45.414;11.084;2023-07-13T02:42:52;2.90;;;1.52;;
42096;SDS011;27754;45.414;11.084;2023-07-13T02:45:19;5.88;;;1.90;;
42096;SDS011;27754;45.414;11.084;2023-07-13T02:47:46;5.13;;;1.65;;
42096;SDS011;27754;45.414;11.084;2023-07-13T02:50:13;4.40;;;1.70;;
42096;SDS011;27754;45.414;11.084;2023-07-13T02:52:40;4.75;;;1.73;;
42096;SDS011;27754;45.414;11.084;2023-07-13T02:55:07;3.72;;;1.83;;
42096;SDS011;27754;45.414;11.084;2023-07-13T02:57:35;6.80;;;1.60;;
42096;SDS011;27754;45.414;11.084;2023-07-13T03:00:02;5.85;;;1.60;;
42096;SDS011;27754;45.414;11.084;2023-07-13T03:02:34;5.40;;;2.10;;
42096;SDS011;27754;45.414;11.084;2023-07-13T03:05:01;6.00;;;2.17;;
42096;SDS011;27754;45.414;11.084;2023-07-13T03:07:29;5.15;;;2.03;;
42096;SDS011;27754;45.414;11.084;2023-07-13T03:09:58;5.70;;;1.55;;
42096;SDS011;27754;45.414;11.084;2023-07-13T03:12:34;4.15;;;1.83;;
42096;SDS011;27754;45.414;11.084;2023-07-13T03:15:04;3.30;;;1.63;;
42096;SDS011;27754;45.414;11.084;2023-07-13T03:17:32;4.72;;;1.80;;
42096;SDS011;27754;45.414;11.084;2023-07-13T03:20:00;3.83;;;1.77;;
42096;SDS011;27754;45.414;11.084;2023-07-13T03:22:27;5.15;;;2.00;;
42096;SDS011;27754;45.414;11.084;2023-07-13T03:24:55;3.83;;;2.10;;
42096;SDS011;27754;45.414;11.084;2023-07-13T03:27:22;6.03;;;2.10;;
42096;SDS011;27754;45.414;11.084;2023-07-13T03:29:49;6.15;;;2.10;;
42096;SDS011;27754;45.414;11.084;2023-07-13T03:32:17;5.28;;;2.13;;
42096;SDS011;27754;45.414;11.084;2023-07-13T03:34:44;8.45;;;1.85;;
42096;SDS011;27754;45.414;11.084;2023-07-13T03:37:12;4.40;;;1.73;;
42096;SDS011;27754;45.414;11.084;2023-07-13T03:39:40;5.80;;;2.03;;
42096;SDS011;27754;45.414;11.084;2023-07-13T03:42:07;4.15;;;2.03;;
42096;SDS011;27754;45.414;11.084;2023-07-13T03:44:34;4.18;;;1.85;;
42096;SDS011;27754;45.414;11.084;2023-07-13T03:47:02;5.55;;;2.30;;
42096;SDS011;27754;45.414;11.084;2023-07-13T03:49:32;5.90;;;2.10;;
42096;SDS011;27754;45.414;11.084;2023-07-13T03:51:59;6.10;;;2.20;;
42096;SDS011;27754;45.414;11.084;2023-07-13T03:54:26;6.10;;;2.55;;
42096;SDS011;27754;45.414;11.084;2023-07-13T03:56:53;6.55;;;2.40;;
42096;SDS011;27754;45.414;11.084;2023-07-13T03:59:21;8.52;;;2.63;;
42096;SDS011;27754;45.414;11.084;2023-07-13T04:01:48;6.03;;;2.20;;
42096;SDS011;27754;45.414;11.084;2023-07-13T04:04:15;5.35;;;2.60;;
42096;SDS011;27754;45.414;11.084;2023-07-13T04:06:42;6.60;;;2.60;;
42096;SDS011;27754;45.414;11.084;2023-07-13T04:09:10;6.28;;;2.67;;
42096;SDS011;27754;45.414;11.084;2023-07-13T04:11:37;5.35;;;3.10;;
42096;SDS011;27754;45.414;11.084;2023-07-13T04:14:05;6.47;;;3.20;;
42096;SDS011;27754;45.414;11.084;2023-07-13T04:16:33;6.68;;;3.10;;
42096;SDS011;27754;45.414;11.084;2023-07-13T04:19:00;5.90;;;3.17;;
42096;SDS011;27754;45.414;11.084;2023-07-13T04:21:28;7.00;;;3.05;;
42096;SDS011;27754;45.414;11.084;2023-07-13T04:23:56;7.97;;;3.17;;
42096;SDS011;27754;45.414;11.084;2023-07-13T04:26:24;7.25;;;2.83;;
42096;SDS011;27754;45.414;11.084;2023-07-13T04:28:51;6.55;;;2.70;;
42096;SDS011;27754;45.414;11.084;2023-07-13T04:31:19;7.40;;;3.05;;
42096;SDS011;27754;45.414;11.084;2023-07-13T04:33:46;3.67;;;2.03;;
42096;SDS011;27754;45.414;11.084;2023-07-13T04:36:15;6.70;;;2.70;;
42096;SDS011;27754;45.414;11.084;2023-07-13T04:38:42;6.68;;;2.70;;
42096;SDS011;27754;45.414;11.084;2023-07-13T04:41:10;7.22;;;2.60;;
42096;SDS011;27754;45.414;11.084;2023-07-13T04:43:38;8.48;;;2.95;;
42096;SDS011;27754;45.414;11.084;2023-07-13T04:46:06;6.80;;;3.00;;
42096;SDS011;27754;45.414;11.084;2023-07-13T04:48:35;6.30;;;2.80;;
42096;SDS011;27754;45.414;11.084;2023-07-13T04:51:02;5.70;;;2.45;;
42096;SDS011;27754;45.414;11.084;2023-07-13T04:53:30;6.68;;;2.40;;
42096;SDS011;27754;45.414;11.084;2023-07-13T04:55:58;5.47;;;2.13;;
42096;SDS011;27754;45.414;11.084;2023-07-13T04:58:25;7.30;;;2.30;;
42096;SDS011;27754;45.414;11.084;2023-07-13T05:00:53;7.85;;;2.22;;
42096;SDS011;27754;45.414;11.084;2023-07-13T05:03:26;4.85;;;2.20;;
42096;SDS011;27754;45.414;11.084;2023-07-13T05:05:57;5.53;;;2.30;;
42096;SDS011;27754;45.414;11.084;2023-07-13T05:08:26;7.88;;;2.70;;
42096;SDS011;27754;45.414;11.084;2023-07-13T05:10:53;6.93;;;2.75;;
42096;SDS011;27754;45.414;11.084;2023-07-13T05:13:20;8.68;;;2.70;;
42096;SDS011;27754;45.414;11.084;2023-07-13T05:15:58;7.95;;;2.35;;
42096;SDS011;27754;45.414;11.084;2023-07-13T05:18:30;6.05;;;1.90;;
42096;SDS011;27754;45.414;11.084;2023-07-13T05:21:02;5.45;;;2.13;;
42096;SDS011;27754;45.414;11.084;2023-07-13T05:23:31;6.03;;;2.45;;
42096;SDS011;27754;45.414;11.084;2023-07-13T05:25:59;6.05;;;2.00;;
42096;SDS011;27754;45.414;11.084;2023-07-13T05:28:27;6.78;;;2.25;;
42096;SDS011;27754;45.414;11.084;2023-07-13T05:30:56;7.55;;;2.55;;
42096;SDS011;27754;45.414;11.084;2023-07-13T05:33:23;7.45;;;2.20;;
42096;SDS011;27754;45.414;11.084;2023-07-13T05:35:51;5.60;;;1.98;;
42096;SDS011;27754;45.414;11.084;2023-07-13T05:38:18;6.30;;;2.00;;
42096;SDS011;27754;45.414;11.084;2023-07-13T05:40:45;5.78;;;2.20;;
42096;SDS011;27754;45.414;11.084;2023-07-13T05:43:13;4.15;;;1.95;;
42096;SDS011;27754;45.414;11.084;2023-07-13T05:45:40;5.43;;;1.92;;
42096;SDS011;27754;45.414;11.084;2023-07-13T05:48:07;4.88;;;1.65;;
42096;SDS011;27754;45.414;11.084;2023-07-13T05:50:34;5.13;;;1.63;;
42096;SDS011;27754;45.414;11.084;2023-07-13T05:53:01;6.93;;;1.98;;
42096;SDS011;27754;45.414;11.084;2023-07-13T05:55:28;7.25;;;2.33;;
42096;SDS011;27754;45.414;11.084;2023-07-13T05:57:55;5.80;;;1.88;;
42096;SDS011;27754;45.414;11.084;2023-07-13T06:00:24;9.82;;;1.98;;
42096;SDS011;27754;45.414;11.084;2023-07-13T06:02:51;5.07;;;1.90;;
42096;SDS011;27754;45.414;11.084;2023-07-13T06:05:19;6.00;;;2.05;;
42096;SDS011;27754;45.414;11.084;2023-07-13T06:07:46;9.27;;;2.22;;
42096;SDS011;27754;45.414;11.084;2023-07-13T06:10:13;7.60;;;2.38;;
42096;SDS011;27754;45.414;11.084;2023-07-13T06:12:40;3.08;;;2.03;;
42096;SDS011;27754;45.414;11.084;2023-07-13T06:15:07;6.90;;;1.92;;
42096;SDS011;27754;45.414;11.084;2023-07-13T06:17:34;13.02;;;2.38;;
42096;SDS011;27754;45.414;11.084;2023-07-13T06:20:01;8.30;;;2.33;;
42096;SDS011;27754;45.414;11.084;2023-07-13T06:22:28;10.68;;;2.85;;
42096;SDS011;27754;45.414;11.084;2023-07-13T06:24:56;12.85;;;2.90;;
42096;SDS011;27754;45.414;11.084;2023-07-13T06:27:23;8.10;;;2.60;;
42096;SDS011;27754;45.414;11.084;2023-07-13T06:29:50;4.22;;;2.25;;
42096;SDS011;27754;45.414;11.084;2023-07-13T06:32:17;8.95;;;2.65;;
42096;SDS011;27754;45.414;11.084;2023-07-13T06:34:44;20.65;;;3.25;;
42096;SDS011;27754;45.414;11.084;2023-07-13T06:37:11;10.70;;;2.75;;
42096;SDS011;27754;45.414;11.084;2023-07-13T06:39:38;10.20;;;2.90;;
42096;SDS011;27754;45.414;11.084;2023-07-13T06:42:05;10.60;;;2.40;;
42096;SDS011;27754;45.414;11.084;2023-07-13T06:44:32;9.10;;;2.40;;
42096;SDS011;27754;45.414;11.084;2023-07-13T06:46:59;12.15;;;2.53;;
42096;SDS011;27754;45.414;11.084;2023-07-13T06:49:26;8.07;;;2.88;;
42096;SDS011;27754;45.414;11.084;2023-07-13T06:51:53;7.13;;;1.90;;
42096;SDS011;27754;45.414;11.084;2023-07-13T06:54:20;5.55;;;2.25;;
42096;SDS011;27754;45.414;11.084;2023-07-13T06:56:47;14.95;;;2.78;;
42096;SDS011;27754;45.414;11.084;2023-07-13T06:59:14;12.55;;;2.67;;
42096;SDS011;27754;45.414;11.084;2023-07-13T07:01:41;8.02;;;2.20;;
42096;SDS011;27754;45.414;11.084;2023-07-13T07:04:09;12.00;;;2.63;;
42096;SDS011;27754;45.414;11.084;2023-07-13T07:06:36;9.20;;;2.20;;
42096;SDS011;27754;45.414;11.084;2023-07-13T07:09:03;10.18;;;3.08;;
42096;SDS011;27754;45.414;11.084;2023-07-13T07:11:30;5.32;;;2.55;;
42096;SDS011;27754;45.414;11.084;2023-07-13T07:13:57;8.23;;;2.00;;
42096;SDS011;27754;45.414;11.084;2023-07-13T07:16:24;4.90;;;2.13;;
42096;SDS011;27754;45.414;11.084;2023-07-13T07:18:52;6.80;;;2.08;;
42096;SDS011;27754;45.414;11.084;2023-07-13T07:21:19;9.27;;;2.30;;
42096;SDS011;27754;45.414;11.084;2023-07-13T07:23:46;6.80;;;2.00;;
42096;SDS011;27754;45.414;11.084;2023-07-13T07:26:13;9.13;;;2.00;;
42096;SDS011;27754;45.414;11.084;2023-07-13T07:28:40;7.03;;;2.28;;
42096;SDS011;27754;45.414;11.084;2023-07-13T07:31:14;9.83;;;1.87;;
42096;SDS011;27754;45.414;11.084;2023-07-13T07:33:44;6.97;;;1.90;;
42096;SDS011;27754;45.414;11.084;2023-07-13T07:36:11;6.38;;;2.15;;
42096;SDS011;27754;45.414;11.084;2023-07-13T07:38:41;10.27;;;2.25;;
42096;SDS011;27754;45.414;11.084;2023-07-13T07:41:09;7.80;;;1.90;;
42096;SDS011;27754;45.414;11.084;2023-07-13T07:43:39;7.90;;;1.92;;
42096;SDS011;27754;45.414;11.084;2023-07-13T07:46:06;10.85;;;2.03;;
42096;SDS011;27754;45.414;11.084;2023-07-13T07:48:33;6.30;;;2.03;;
42096;SDS011;27754;45.414;11.084;2023-07-13T07:51:00;11.07;;;2.50;;
42096;SDS011;27754;45.414;11.084;2023-07-13T07:53:27;5.75;;;1.67;;
42096;SDS011;27754;45.414;11.084;2023-07-13T07:55:57;8.95;;;1.70;;
42096;SDS011;27754;45.414;11.084;2023-07-13T07:58:43;6.20;;;1.52;;
42096;SDS011;27754;45.414;11.084;2023-07-13T08:01:13;6.57;;;2.03;;
42096;SDS011;27754;45.414;11.084;2023-07-13T08:03:43;6.72;;;2.05;;
42096;SDS011;27754;45.414;11.084;2023-07-13T08:06:13;4.00;;;1.83;;
42096;SDS011;27754;45.414;11.084;2023-07-13T08:09:00;4.80;;;1.95;;
42096;SDS011;27754;45.414;11.084;2023-07-13T08:11:28;3.50;;;1.40;;
42096;SDS011;27754;45.414;11.084;2023-07-13T08:13:58;7.00;;;2.45;;
42096;SDS011;27754;45.414;11.084;2023-07-13T08:16:25;5.97;;;1.80;;
42096;SDS011;27754;45.414;11.084;2023-07-13T08:18:52;6.80;;;2.15;;
42096;SDS011;27754;45.414;11.084;2023-07-13T08:21:19;8.18;;;1.92;;
42096;SDS011;27754;45.414;11.084;2023-07-13T08:23:46;7.65;;;2.15;;
42096;SDS011;27754;45.414;11.084;2023-07-13T08:26:13;5.65;;;2.08;;
42096;SDS011;27754;45.414;11.084;2023-07-13T08:28:41;6.78;;;1.83;;
42096;SDS011;27754;45.414;11.084;2023-07-13T08:31:08;7.63;;;1.90;;
42096;SDS011;27754;45.414;11.084;2023-07-13T08:33:37;9.48;;;2.30;;
42096;SDS011;27754;45.414;11.084;2023-07-13T08:36:04;5.13;;;2.20;;
42096;SDS011;27754;45.414;11.084;2023-07-13T08:38:32;8.57;;;2.15;;
42096;SDS011;27754;45.414;11.084;2023-07-13T08:40:59;7.97;;;2.45;;
42096;SDS011;27754;45.414;11.084;2023-07-13T08:43:30;9.50;;;2.40;;
42096;SDS011;27754;45.414;11.084;2023-07-13T08:46:08;8.65;;;2.88;;
42096;SDS011;27754;45.414;11.084;2023-07-13T08:48:58;12.73;;;2.97;;
42096;SDS011;27754;45.414;11.084;2023-07-13T08:51:31;11.50;;;3.30;;
42096;SDS011;27754;45.414;11.084;2023-07-13T08:54:05;10.95;;;3.30;;
42096;SDS011;27754;45.414;11.084;2023-07-13T08:56:54;10.23;;;3.38;;
42096;SDS011;27754;45.414;11.084;2023-07-13T08:59:24;15.45;;;3.38;;
42096;SDS011;27754;45.414;11.084;2023-07-13T09:04:35;16.25;;;3.67;;
42096;SDS011;27754;45.414;11.084;2023-07-13T09:09:40;18.70;;;3.85;;
42096;SDS011;27754;45.414;11.084;2023-07-13T09:18:04;46.38;;;6.20;;
42096;SDS011;27754;45.414;11.084;2023-07-13T09:23:10;17.58;;;4.38;;
42096;SDS011;27754;45.414;11.084;2023-07-13T09:25:44;19.45;;;4.47;;
42096;SDS011;27754;45.414;11.084;2023-07-13T09:28:15;11.68;;;3.63;;
42096;SDS011;27754;45.414;11.084;2023-07-13T09:31:08;14.90;;;4.22;;
42096;SDS011;27754;45.414;11.084;2023-07-13T09:33:45;10.25;;;3.00;;
42096;SDS011;27754;45.414;11.084;2023-07-13T09:36:22;20.92;;;4.88;;
42096;SDS011;27754;45.414;11.084;2023-07-13T09:41:27;22.75;;;4.30;;
42096;SDS011;27754;45.414;11.084;2023-07-13T09:44:13;17.55;;;4.00;;
42096;SDS011;27754;45.414;11.084;2023-07-13T09:46:45;16.35;;;4.00;;
42096;SDS011;27754;45.414;11.084;2023-07-13T09:49:18;16.35;;;3.70;;
42096;SDS011;27754;45.414;11.084;2023-07-13T09:51:49;14.45;;;3.33;;
42096;SDS011;27754;45.414;11.084;2023-07-13T09:54:26;11.77;;;3.88;;
42096;SDS011;27754;45.414;11.084;2023-07-13T09:57:00;11.95;;;3.90;;
42096;SDS011;27754;45.414;11.084;2023-07-13T09:59:35;13.82;;;4.05;;
42096;SDS011;27754;45.414;11.084;2023-07-13T10:02:27;20.67;;;4.25;;
42096;SDS011;27754;45.414;11.084;2023-07-13T10:05:00;12.90;;;3.60;;
42096;SDS011;27754;45.414;11.084;2023-07-13T10:07:31;11.68;;;4.43;;
42096;SDS011;27754;45.414;11.084;2023-07-13T10:10:00;12.05;;;3.83;;
42096;SDS011;27754;45.414;11.084;2023-07-13T10:12:29;12.38;;;3.45;;
42096;SDS011;27754;45.414;11.084;2023-07-13T10:15:02;12.23;;;3.53;;
42096;SDS011;27754;45.414;11.084;2023-07-13T10:17:49;10.40;;;3.13;;
42096;SDS011;27754;45.414;11.084;2023-07-13T10:20:18;8.35;;;3.15;;
42096;SDS011;27754;45.414;11.084;2023-07-13T10:25:22;13.52;;;3.58;;
42096;SDS011;27754;45.414;11.084;2023-07-13T10:27:58;8.23;;;2.55;;
42096;SDS011;27754;45.414;11.084;2023-07-13T10:30:33;9.18;;;2.65;;
42096;SDS011;27754;45.414;11.084;2023-07-13T10:33:05;12.57;;;3.63;;
42096;SDS011;27754;45.414;11.084;2023-07-13T10:35:38;9.20;;;2.47;;
42096;SDS011;27754;45.414;11.084;2023-07-13T10:38:12;12.20;;;3.03;;
42096;SDS011;27754;45.414;11.084;2023-07-13T10:43:33;9.82;;;2.90;;
42096;SDS011;27754;45.414;11.084;2023-07-13T10:46:17;10.57;;;2.83;;
42096;SDS011;27754;45.414;11.084;2023-07-13T10:48:48;7.32;;;2.63;;
42096;SDS011;27754;45.414;11.084;2023-07-13T10:51:20;8.85;;;3.10;;
42096;SDS011;27754;45.414;11.084;2023-07-13T10:54:10;13.65;;;3.92;;
42096;SDS011;27754;45.414;11.084;2023-07-13T10:56:50;11.43;;;3.00;;
42096;SDS011;27754;45.414;11.084;2023-07-13T10:59:23;7.38;;;2.92;;
42096;SDS011;27754;45.414;11.084;2023-07-13T11:01:58;7.22;;;2.72;;
42096;SDS011;27754;45.414;11.084;2023-07-13T11:04:41;7.78;;;2.97;;
42096;SDS011;27754;45.414;11.084;2023-07-13T11:07:21;7.82;;;2.90;;
42096;SDS011;27754;45.414;11.084;2023-07-13T11:22:49;9.30;;;3.65;;
42096;SDS011;27754;45.414;11.084;2023-07-13T11:38:36;9.50;;;3.15;;
42096;SDS011;27754;45.414;11.084;2023-07-13T11:41:23;9.60;;;3.28;;
42096;SDS011;27754;45.414;11.084;2023-07-13T11:43:54;5.72;;;2.45;;
42096;SDS011;27754;45.414;11.084;2023-07-13T11:46:31;8.73;;;2.60;;
42096;SDS011;27754;45.414;11.084;2023-07-13T11:48:58;6.15;;;2.58;;
42096;SDS011;27754;45.414;11.084;2023-07-13T11:51:29;8.75;;;3.25;;
42096;SDS011;27754;45.414;11.084;2023-07-13T11:54:02;9.37;;;3.40;;
42096;SDS011;27754;45.414;11.084;2023-07-13T11:56:31;11.00;;;3.45;;
42096;SDS011;27754;45.414;11.084;2023-07-13T11:59:03;12.73;;;3.83;;
42096;SDS011;27754;45.414;11.084;2023-07-13T12:01:33;7.93;;;3.45;;
42096;SDS011;27754;45.414;11.084;2023-07-13T12:04:08;13.73;;;4.10;;
42096;SDS011;27754;45.414;11.084;2023-07-13T12:06:52;12.27;;;4.07;;
42096;SDS011;27754;45.414;11.084;2023-07-13T12:09:22;8.40;;;3.78;;
42096;SDS011;27754;45.414;11.084;2023-07-13T12:11:51;14.68;;;4.22;;
42096;SDS011;27754;45.414;11.084;2023-07-13T12:14:19;8.88;;;3.30;;
42096;SDS011;27754;45.414;11.084;2023-07-13T12:16:46;8.50;;;3.85;;
42096;SDS011;27754;45.414;11.084;2023-07-13T12:19:20;13.30;;;3.90;;
42096;SDS011;27754;45.414;11.084;2023-07-13T12:21:53;11.05;;;4.05;;
42096;SDS011;27754;45.414;11.084;2023-07-13T12:24:22;9.00;;;3.70;;
42096;SDS011;27754;45.414;11.084;2023-07-13T12:26:52;8.18;;;3.15;;
42096;SDS011;27754;45.414;11.084;2023-07-13T12:29:31;10.80;;;2.85;;
42096;SDS011;27754;45.414;11.084;2023-07-13T12:31:59;8.82;;;3.67;;
42096;SDS011;27754;45.414;11.084;2023-07-13T12:34:26;8.02;;;3.40;;
42096;SDS011;27754;45.414;11.084;2023-07-13T12:37:00;8.15;;;3.58;;
42096;SDS011;27754;45.414;11.084;2023-07-13T12:45:12;8.60;;;3.67;;
42096;SDS011;27754;45.414;11.084;2023-07-13T12:47:50;8.00;;;3.05;;
42096;SDS011;27754;45.414;11.084;2023-07-13T12:50:29;8.60;;;3.30;;
42096;SDS011;27754;45.414;11.084;2023-07-13T12:55:30;8.63;;;3.35;;
42096;SDS011;27754;45.414;11.084;2023-07-13T12:57:59;8.38;;;3.53;;
42096;SDS011;27754;45.414;11.084;2023-07-13T13:00:33;6.20;;;3.13;;
42096;SDS011;27754;45.414;11.084;2023-07-13T13:05:56;8.32;;;3.28;;
42096;SDS011;27754;45.414;11.084;2023-07-13T13:08:30;11.32;;;3.30;;
42096;SDS011;27754;45.414;11.084;2023-07-13T13:11:02;6.03;;;2.67;;
42096;SDS011;27754;45.414;11.084;2023-07-13T13:13:29;8.30;;;2.83;;
42096;SDS011;27754;45.414;11.084;2023-07-13T13:16:01;9.35;;;2.80;;
42096;SDS011;27754;45.414;11.084;2023-07-13T13:18:46;11.73;;;2.95;;
42096;SDS011;27754;45.414;11.084;2023-07-13T13:21:15;9.70;;;2.63;;
42096;SDS011;27754;45.414;11.084;2023-07-13T13:23:43;8.95;;;3.00;;
42096;SDS011;27754;45.414;11.084;2023-07-13T13:26:10;9.10;;;2.88;;
42096;SDS011;27754;45.414;11.084;2023-07-13T13:28:40;6.55;;;2.78;;
42096;SDS011;27754;45.414;11.084;2023-07-13T13:31:10;7.28;;;2.78;;
42096;SDS011;27754;45.414;11.084;2023-07-13T13:33:39;9.60;;;2.95;;
42096;SDS011;27754;45.414;11.084;2023-07-13T13:36:13;7.47;;;2.63;;
42096;SDS011;27754;45.414;11.084;2023-07-13T13:38:41;10.30;;;2.72;;
42096;SDS011;27754;45.414;11.084;2023-07-13T13:41:10;11.77;;;2.83;;
42096;SDS011;27754;45.414;11.084;2023-07-13T13:43:40;7.88;;;3.28;;
42096;SDS011;27754;45.414;11.084;2023-07-13T13:46:16;8.98;;;2.85;;
42096;SDS011;27754;45.414;11.084;2023-07-13T13:48:45;8.07;;;3.08;;
42096;SDS011;27754;45.414;11.084;2023-07-13T13:51:16;12.10;;;3.15;;
42096;SDS011;27754;45.414;11.084;2023-07-13T13:53:46;7.88;;;2.97;;
42096;SDS011;27754;45.414;11.084;2023-07-13T13:56:14;8.02;;;2.75;;
42096;SDS011;27754;45.414;11.084;2023-07-13T13:58:42;9.77;;;3.00;;
42096;SDS011;27754;45.414;11.084;2023-07-13T14:01:12;9.15;;;2.97;;
42096;SDS011;27754;45.414;11.084;2023-07-13T14:03:42;15.37;;;3.67;;
42096;SDS011;27754;45.414;11.084;2023-07-13T14:06:11;11.68;;;2.88;;
42096;SDS011;27754;45.414;11.084;2023-07-13T14:08:39;6.22;;;2.80;;
42096;SDS011;27754;45.414;11.084;2023-07-13T14:11:07;10.77;;;3.55;;
42096;SDS011;27754;45.414;11.084;2023-07-13T14:13:41;8.63;;;3.50;;
42096;SDS011;27754;45.414;11.084;2023-07-13T14:16:22;9.88;;;3.17;;
42096;SDS011;27754;45.414;11.084;2023-07-13T14:18:54;8.32;;;3.03;;
42096;SDS011;27754;45.414;11.084;2023-07-13T14:21:24;7.13;;;3.30;;
42096;SDS011;27754;45.414;11.084;2023-07-13T14:23:53;6.75;;;3.35;;
42096;SDS011;27754;45.414;11.084;2023-07-13T14:26:21;6.25;;;3.20;;
42096;SDS011;27754;45.414;11.084;2023-07-13T14:28:54;13.90;;;3.05;;
42096;SDS011;27754;45.414;11.084;2023-07-13T14:31:22;9.55;;;2.90;;
42096;SDS011;27754;45.414;11.084;2023-07-13T14:33:56;6.15;;;2.75;;
42096;SDS011;27754;45.414;11.084;2023-07-13T14:36:25;12.75;;;2.70;;
42096;SDS011;27754;45.414;11.084;2023-07-13T14:38:53;9.50;;;3.30;;
42096;SDS011;27754;45.414;11.084;2023-07-13T14:41:21;11.50;;;2.80;;
42096;SDS011;27754;45.414;11.084;2023-07-13T14:43:48;10.00;;;3.05;;
42096;SDS011;27754;45.414;11.084;2023-07-13T14:46:27;14.77;;;3.47;;
42096;SDS011;27754;45.414;11.084;2023-07-13T14:49:03;8.18;;;3.22;;
42096;SDS011;27754;45.414;11.084;2023-07-13T14:51:51;8.60;;;3.20;;
42096;SDS011;27754;45.414;11.084;2023-07-13T14:54:18;12.40;;;2.80;;
42096;SDS011;27754;45.414;11.084;2023-07-13T14:56:45;12.25;;;3.63;;
42096;SDS011;27754;45.414;11.084;2023-07-13T14:59:12;10.45;;;3.47;;
42096;SDS011;27754;45.414;11.084;2023-07-13T15:01:40;12.23;;;3.38;;
42096;SDS011;27754;45.414;11.084;2023-07-13T15:04:07;8.27;;;2.70;;
42096;SDS011;27754;45.414;11.084;2023-07-13T15:06:57;6.18;;;2.72;;
42096;SDS011;27754;45.414;11.084;2023-07-13T15:09:27;11.27;;;3.35;;
42096;SDS011;27754;45.414;11.084;2023-07-13T15:11:55;5.55;;;2.67;;
42096;SDS011;27754;45.414;11.084;2023-07-13T15:14:24;10.70;;;2.83;;
42096;SDS011;27754;45.414;11.084;2023-07-13T15:16:53;16.38;;;3.50;;
42096;SDS011;27754;45.414;11.084;2023-07-13T15:19:22;12.45;;;3.15;;
42096;SDS011;27754;45.414;11.084;2023-07-13T15:21:50;10.43;;;3.20;;
42096;SDS011;27754;45.414;11.084;2023-07-13T15:24:18;8.32;;;2.90;;
42096;SDS011;27754;45.414;11.084;2023-07-13T15:26:47;10.60;;;2.92;;
42096;SDS011;27754;45.414;11.084;2023-07-13T15:29:16;12.73;;;3.47;;
42096;SDS011;27754;45.414;11.084;2023-07-13T15:31:44;12.93;;;3.72;;
42096;SDS011;27754;45.414;11.084;2023-07-13T15:34:13;9.75;;;3.17;;
42096;SDS011;27754;45.414;11.084;2023-07-13T15:36:43;7.18;;;2.88;;
42096;SDS011;27754;45.414;11.084;2023-07-13T15:39:14;7.97;;;3.13;;
42096;SDS011;27754;45.414;11.084;2023-07-13T15:41:45;8.45;;;2.80;;
42096;SDS011;27754;45.414;11.084;2023-07-13T15:44:48;9.55;;;2.85;;
42096;SDS011;27754;45.414;11.084;2023-07-13T15:47:11;9.20;;;2.78;;
42096;SDS011;27754;45.414;11.084;2023-07-13T15:49:39;13.70;;;3.63;;